createdAt,value
2018-04-07T20:02:16.381Z,99752.57
2018-04-07T20:04:41.945Z,99741.77
2018-04-07T20:07:07.583Z,99747.70
2018-04-07T20:09:33.384Z,99748.56
2018-04-07T20:11:58.942Z,99748.17
2018-04-07T20:14:24.496Z,99743.47
2018-04-07T20:16:50.215Z,99747.08
2018-04-07T20:19:16.206Z,99739.63
2018-04-07T20:21:41.761Z,99742.01
2018-04-07T20:24:07.733Z,99745.93
2018-04-07T20:26:33.309Z,99734.56
2018-04-07T20:28:59.454Z,99735.33
2018-04-07T20:31:25.246Z,99733.77
2018-04-07T20:33:50.815Z,99740.40
2018-04-07T20:36:16.424Z,99731.42
2018-04-07T20:38:42.330Z,99734.59
2018-04-07T20:41:07.871Z,99739.31
2018-04-07T20:43:33.423Z,99743.67
2018-04-07T20:45:59.238Z,99743.28
2018-04-07T20:48:24.797Z,99737.73
2018-04-07T20:50:50.508Z,99739.36
2018-04-07T20:53:16.458Z,99731.08
2018-04-07T20:55:42.023Z,99735.39
2018-04-07T20:58:07.717Z,99741.30
2018-04-07T21:00:33.505Z,99737.38
2018-04-07T21:03:01.224Z,99731.88
2018-04-07T21:05:26.941Z,99735.42
2018-04-07T21:07:52.706Z,99735.42
2018-04-07T21:10:18.333Z,99736.58
2018-04-07T21:12:43.913Z,99727.92
2018-04-07T21:15:11.942Z,99730.67
2018-04-07T21:17:39.155Z,99729.50
2018-04-07T21:20:04.906Z,99721.25
2018-04-07T21:22:31.388Z,99725.16
2018-04-07T21:24:56.973Z,99729.09
2018-04-07T21:27:22.475Z,99721.24
2018-04-07T21:29:48.675Z,99719.66
2018-04-07T21:32:14.247Z,99721.61
2018-04-07T21:34:39.794Z,99721.20
2018-04-07T21:37:05.543Z,99713.73
2018-04-07T21:39:31.084Z,99720.83
2018-04-07T21:41:56.644Z,99715.70
2018-04-07T21:44:22.341Z,99711.38
2018-04-07T21:46:47.872Z,99719.22
2018-04-07T21:49:13.417Z,99706.61
2018-04-07T21:51:39.201Z,99715.70
2018-04-07T21:54:04.751Z,99713.34
2018-04-07T21:56:30.303Z,99719.15
2018-04-07T21:58:56.182Z,99713.54
2018-04-07T22:01:21.736Z,99713.54
2018-04-07T22:03:47.770Z,99707.23
2018-04-07T22:06:13.568Z,99713.47
2018-04-07T22:08:39.186Z,99702.05
2018-04-07T22:11:04.809Z,99704.80
2018-04-07T22:13:30.549Z,99706.41
2018-04-07T22:15:56.122Z,99707.56
2018-04-07T22:18:21.666Z,99709.91
2018-04-07T22:20:50.664Z,99706.84
2018-04-07T22:23:19.634Z,99706.75
2018-04-07T22:25:46.664Z,99707.94
2018-04-07T22:28:12.586Z,99705.55
2018-04-07T22:30:38.154Z,99707.16
2018-04-07T22:33:19.213Z,99705.11
2018-04-07T22:35:44.758Z,99710.58
2018-04-07T22:38:10.315Z,99708.97
2018-04-07T22:40:36.193Z,99710.47
2018-04-07T22:43:01.730Z,99710.47
2018-04-07T22:45:27.292Z,99713.17
2018-04-07T22:47:52.987Z,99711.76
2018-04-07T22:50:18.538Z,99716.77
2018-04-07T22:52:44.124Z,99707.78
2018-04-07T22:55:09.900Z,99709.25
2018-04-07T22:57:35.435Z,99712.73
2018-04-07T23:00:00.981Z,99716.25
2018-04-07T23:02:27.022Z,99711.94
2018-04-07T23:04:53.361Z,99711.61
2018-04-07T23:07:18.930Z,99713.94
2018-04-07T23:09:44.839Z,99698.20
2018-04-07T23:12:10.370Z,99713.53
2018-04-07T23:14:35.929Z,99712.33
2018-04-07T23:17:01.815Z,99712.81
2018-04-07T23:19:27.332Z,99715.12
2018-04-07T23:21:52.938Z,99716.99
2018-04-07T23:24:18.698Z,99717.33
2018-04-07T23:26:44.257Z,99712.16
2018-04-07T23:29:09.824Z,99710.13
2018-04-07T23:31:35.734Z,99715.83
2018-04-07T23:34:01.359Z,99722.35
2018-04-07T23:36:26.901Z,99717.48
2018-04-07T23:38:52.762Z,99715.43
2018-04-07T23:41:18.410Z,99718.23
2018-04-07T23:43:43.963Z,99722.58
2018-04-07T23:46:09.675Z,99720.19
2018-04-07T23:48:35.288Z,99711.43
2018-04-07T23:51:00.894Z,99715.81
2018-04-07T23:53:26.616Z,99712.37
2018-04-07T23:55:52.212Z,99711.58
2018-04-07T23:58:17.757Z,99708.50
